createdAt,value
2018-02-16T00:00:47.869Z,95.46
2018-02-16T00:03:15.312Z,95.46
2018-02-16T00:05:42.785Z,95.24
2018-02-16T00:08:10.460Z,96.31
2018-02-16T00:10:37.940Z,97.93
2018-02-16T00:13:05.407Z,97.72
2018-02-16T00:15:32.876Z,97.08
2018-02-16T00:18:00.324Z,97.04
2018-02-16T00:20:27.772Z,97.18
2018-02-16T00:22:55.248Z,98.00
2018-02-16T00:25:22.720Z,97.74
2018-02-16T00:27:50.173Z,97.51
2018-02-16T00:30:17.792Z,97.10
2018-02-16T00:32:45.278Z,96.67
2018-02-16T00:35:12.729Z,96.87
2018-02-16T00:37:40.272Z,96.57
2018-02-16T00:40:07.739Z,96.65
2018-02-16T00:42:35.201Z,97.71
2018-02-16T00:45:02.809Z,98.59
2018-02-16T00:47:30.261Z,98.43
2018-02-16T00:49:57.708Z,98.15
2018-02-16T00:52:25.327Z,97.44
2018-02-16T00:54:52.825Z,97.16
2018-02-16T00:57:20.274Z,97.25
2018-02-16T00:59:47.971Z,97.59
2018-02-16T01:02:15.429Z,97.74
2018-02-16T01:04:42.897Z,97.49
2018-02-16T01:07:10.580Z,96.92
2018-02-16T01:09:38.025Z,97.11
2018-02-16T01:12:05.471Z,96.84
2018-02-16T01:14:33.169Z,96.70
2018-02-16T01:17:00.637Z,96.58
2018-02-16T01:19:28.084Z,96.31
2018-02-16T01:21:55.577Z,96.40
2018-02-16T01:24:23.041Z,96.54
2018-02-16T01:26:50.508Z,97.08
2018-02-16T01:29:18.186Z,97.32
2018-02-16T01:31:45.633Z,96.98
2018-02-16T01:34:13.085Z,96.50
2018-02-16T01:36:40.593Z,96.16
2018-02-16T01:39:08.077Z,95.93
2018-02-16T01:41:35.546Z,95.88
2018-02-16T01:44:03.232Z,96.15
2018-02-16T01:46:30.916Z,96.28
2018-02-16T01:48:58.512Z,96.20
2018-02-16T01:51:26.345Z,96.27
2018-02-16T01:53:53.792Z,96.31
2018-02-16T01:56:21.264Z,96.45
2018-02-16T01:58:48.748Z,96.24
2018-02-16T02:01:16.200Z,96.16
2018-02-16T02:03:43.644Z,96.20
2018-02-16T02:06:11.260Z,96.33
2018-02-16T02:08:38.705Z,96.30
2018-02-16T02:11:06.155Z,96.18
2018-02-16T02:13:33.649Z,96.70
2018-02-16T02:16:01.097Z,96.55
2018-02-16T02:18:28.542Z,96.28
2018-02-16T02:20:56.196Z,95.73
2018-02-16T02:23:23.648Z,95.65
2018-02-16T02:25:51.118Z,95.83
2018-02-16T02:28:18.601Z,95.91
2018-02-16T02:30:46.052Z,95.71
2018-02-16T02:33:13.512Z,95.41
2018-02-16T02:35:41.301Z,95.35
2018-02-16T02:38:08.749Z,95.13
2018-02-16T02:40:36.205Z,95.21
2018-02-16T02:43:03.687Z,95.54
2018-02-16T02:45:31.136Z,95.55
2018-02-16T02:47:58.581Z,95.73
2018-02-16T02:50:26.073Z,96.46
2018-02-16T02:52:53.520Z,96.02
2018-02-16T02:55:20.977Z,95.92
2018-02-16T02:57:48.492Z,95.72
2018-02-16T03:00:15.976Z,96.68
2018-02-16T03:02:43.441Z,96.94
2018-02-16T03:05:10.912Z,96.59
2018-02-16T03:07:38.381Z,95.92
2018-02-16T03:10:05.836Z,95.70
2018-02-16T03:12:33.312Z,95.48
2018-02-16T03:15:00.778Z,95.67
2018-02-16T03:17:28.225Z,96.40
2018-02-16T03:19:55.904Z,96.26
2018-02-16T03:22:23.368Z,95.93
2018-02-16T03:24:50.813Z,96.60
2018-02-16T03:27:18.452Z,97.65
2018-02-16T03:29:45.913Z,97.62
2018-02-16T03:32:13.375Z,97.64
2018-02-16T03:34:41.073Z,96.94
2018-02-16T03:37:08.537Z,96.27
2018-02-16T03:39:35.984Z,95.78
2018-02-16T03:42:03.600Z,96.16
2018-02-16T03:44:31.044Z,95.71
2018-02-16T03:46:58.490Z,95.44
2018-02-16T03:49:26.317Z,95.19
2018-02-16T03:51:53.789Z,94.85
2018-02-16T03:54:21.236Z,94.60
2018-02-16T03:56:48.744Z,94.74
2018-02-16T03:59:16.216Z,94.48
2018-02-16T04:01:43.689Z,94.37
2018-02-16T04:04:11.180Z,94.52
2018-02-16T04:06:38.624Z,94.62
2018-02-16T04:09:06.081Z,96.11
2018-02-16T04:11:33.828Z,95.38
2018-02-16T04:14:01.905Z,95.53
2018-02-16T04:16:29.376Z,95.40
2018-02-16T04:18:57.053Z,95.60
2018-02-16T04:21:24.501Z,95.39
2018-02-16T04:23:51.981Z,95.07
2018-02-16T04:26:19.452Z,95.44
2018-02-16T04:28:46.924Z,95.17
2018-02-16T04:31:14.388Z,94.94
2018-02-16T04:33:41.874Z,94.60
2018-02-16T04:36:09.317Z,94.50
2018-02-16T04:38:36.773Z,94.50
2018-02-16T04:41:04.400Z,94.47
2018-02-16T04:43:31.849Z,94.41
2018-02-16T04:45:59.289Z,94.05
2018-02-16T04:48:26.776Z,94.11
2018-02-16T04:50:54.229Z,94.23
2018-02-16T04:53:21.670Z,94.22
2018-02-16T04:55:49.320Z,94.66
2018-02-16T04:58:16.788Z,94.37
2018-02-16T05:00:44.231Z,94.42
2018-02-16T05:03:11.928Z,94.41
2018-02-16T05:05:39.394Z,93.59
2018-02-16T05:08:06.841Z,93.70
2018-02-16T05:10:34.309Z,93.64
2018-02-16T05:13:01.805Z,93.86
2018-02-16T05:15:29.256Z,93.53
2018-02-16T05:17:56.849Z,93.73
2018-02-16T05:20:24.303Z,94.82
2018-02-16T05:22:51.752Z,94.17
2018-02-16T05:25:19.237Z,93.94
2018-02-16T05:27:46.699Z,93.63
2018-02-16T05:30:14.177Z,93.62
2018-02-16T05:32:41.677Z,93.61
2018-02-16T05:35:09.126Z,94.08
2018-02-16T05:37:36.573Z,93.49
2018-02-16T05:40:04.569Z,93.48
2018-02-16T05:42:32.085Z,93.25
2018-02-16T05:44:59.572Z,93.43
2018-02-16T05:47:27.281Z,93.27
2018-02-16T05:49:54.733Z,93.67
2018-02-16T05:52:22.188Z,93.67
2018-02-16T05:54:51.534Z,94.69
2018-02-16T05:57:19.025Z,95.68
2018-02-16T05:59:46.473Z,95.46
2018-02-16T06:02:14.161Z,94.65
2018-02-16T06:04:41.601Z,94.57
2018-02-16T06:07:09.061Z,94.19
2018-02-16T06:09:36.546Z,93.86
2018-02-16T06:12:03.992Z,93.94
2018-02-16T06:14:31.446Z,94.19
2018-02-16T06:16:58.912Z,94.04
2018-02-16T06:19:26.362Z,93.86
2018-02-16T06:21:53.839Z,94.42
2018-02-16T06:24:21.328Z,95.06
2018-02-16T06:26:48.777Z,95.24
2018-02-16T06:29:16.225Z,95.48
2018-02-16T06:31:44.005Z,94.46
2018-02-16T06:34:11.453Z,93.67
2018-02-16T06:36:38.924Z,93.96
2018-02-16T06:39:06.632Z,94.13
2018-02-16T06:41:34.077Z,93.92
2018-02-16T06:44:01.523Z,93.52
2018-02-16T06:46:29.225Z,92.40
2018-02-16T06:48:56.680Z,92.04
2018-02-16T06:51:24.133Z,92.43
2018-02-16T06:53:51.740Z,93.05
2018-02-16T06:56:19.185Z,92.94
2018-02-16T06:58:46.636Z,92.97
2018-02-16T07:01:14.361Z,92.13
2018-02-16T07:03:41.809Z,92.65
2018-02-16T07:06:09.265Z,92.77
2018-02-16T07:08:36.740Z,92.73
2018-02-16T07:11:04.225Z,92.83
2018-02-16T07:13:31.649Z,93.23
2018-02-16T07:15:59.369Z,92.81
2018-02-16T07:18:26.817Z,92.54
2018-02-16T07:20:54.276Z,92.88
2018-02-16T07:23:22.197Z,92.88
2018-02-16T07:25:49.641Z,93.48
2018-02-16T07:28:17.102Z,93.24
2018-02-16T07:30:44.752Z,93.09
2018-02-16T07:33:12.221Z,93.67
2018-02-16T07:35:39.676Z,93.11
2018-02-16T07:38:07.631Z,93.19
2018-02-16T07:40:35.072Z,93.34
2018-02-16T07:43:02.518Z,93.61
2018-02-16T07:45:29.995Z,94.68
2018-02-16T07:47:57.480Z,95.00
2018-02-16T07:50:24.945Z,95.25
2018-02-16T07:52:52.428Z,95.75
2018-02-16T07:55:19.877Z,95.43
2018-02-16T07:57:47.326Z,95.49
2018-02-16T08:00:14.906Z,95.43
2018-02-16T08:02:42.373Z,95.81
2018-02-16T08:05:09.839Z,96.72
2018-02-16T08:07:37.700Z,97.40
2018-02-16T08:10:05.192Z,97.63
2018-02-16T08:12:32.637Z,97.77
2018-02-16T08:15:00.116Z,96.98
2018-02-16T08:17:27.580Z,96.82
2018-02-16T08:19:55.037Z,96.65
2018-02-16T08:22:22.800Z,97.38
2018-02-16T08:24:50.244Z,97.48
2018-02-16T08:27:17.688Z,96.39
2018-02-16T08:29:45.404Z,95.40
2018-02-16T08:32:12.861Z,94.90
2018-02-16T08:34:40.308Z,95.53
2018-02-16T08:37:08.044Z,96.23
2018-02-16T08:39:35.493Z,96.83
2018-02-16T08:42:02.937Z,96.85
2018-02-16T08:44:30.417Z,96.79
2018-02-16T08:46:57.869Z,96.08
2018-02-16T08:49:25.329Z,95.90
2018-02-16T08:51:53.042Z,95.23
2018-02-16T08:54:20.485Z,94.69
2018-02-16T08:56:47.948Z,93.57
2018-02-16T08:59:15.661Z,93.09
2018-02-16T09:01:43.109Z,93.09
2018-02-16T09:04:10.556Z,93.62
2018-02-16T09:06:38.153Z,93.65
2018-02-16T09:09:05.599Z,93.30
2018-02-16T09:11:33.045Z,93.36
2018-02-16T09:14:00.521Z,92.87
2018-02-16T09:16:27.972Z,92.49
2018-02-16T09:18:55.444Z,92.78
2018-02-16T09:21:23.080Z,91.75
2018-02-16T09:23:50.536Z,92.14
2018-02-16T09:26:17.992Z,91.55
2018-02-16T09:28:45.473Z,91.80
2018-02-16T09:31:12.920Z,91.16
2018-02-16T09:33:40.373Z,91.50
2018-02-16T09:36:08.821Z,90.54
2018-02-16T09:38:37.045Z,90.79
2018-02-16T09:41:04.527Z,90.53
2018-02-16T09:43:32.281Z,90.73
2018-02-16T09:45:59.729Z,89.29
2018-02-16T09:48:27.176Z,89.10
2018-02-16T09:50:54.824Z,88.42
2018-02-16T09:53:22.280Z,87.90
2018-02-16T09:55:49.737Z,87.96
2018-02-16T09:58:17.574Z,87.84
2018-02-16T10:00:45.021Z,87.58
2018-02-16T10:03:12.468Z,87.45
2018-02-16T10:05:39.962Z,87.10
2018-02-16T10:08:07.413Z,86.46
2018-02-16T10:10:34.890Z,85.41
2018-02-16T10:13:02.620Z,85.42
2018-02-16T10:15:30.061Z,85.45
2018-02-16T10:17:57.532Z,84.96
2018-02-16T10:20:25.013Z,83.59
2018-02-16T10:22:52.484Z,83.56
2018-02-16T10:25:19.949Z,83.24
2018-02-16T10:27:47.729Z,83.19
2018-02-16T10:30:15.177Z,83.64
2018-02-16T10:32:42.665Z,81.82
2018-02-16T10:35:10.173Z,81.87
2018-02-16T10:37:37.933Z,81.92
2018-02-16T10:40:05.383Z,83.00
2018-02-16T10:42:32.860Z,83.91
2018-02-16T10:45:00.317Z,82.15
2018-02-16T10:47:27.850Z,83.13
2018-02-16T10:49:55.770Z,81.96
2018-02-16T10:52:23.217Z,81.87
2018-02-16T10:54:50.677Z,81.30
2018-02-16T10:57:18.153Z,81.01
2018-02-16T10:59:45.601Z,80.53
2018-02-16T11:02:18.545Z,80.97
2018-02-16T11:04:51.621Z,80.72
2018-02-16T11:07:24.872Z,80.14
2018-02-16T11:09:52.333Z,78.61
2018-02-16T11:12:19.780Z,78.82
2018-02-16T11:14:47.381Z,77.97
2018-02-16T11:17:14.836Z,78.60
2018-02-16T11:19:42.276Z,77.29
2018-02-16T11:22:09.877Z,77.84
2018-02-16T11:24:37.368Z,76.64
2018-02-16T11:27:04.812Z,74.79
2018-02-16T11:29:32.289Z,72.83
2018-02-16T11:31:59.742Z,75.24
2018-02-16T11:34:27.181Z,73.79
2018-02-16T11:36:54.664Z,72.96
2018-02-16T11:39:22.118Z,73.47
2018-02-16T11:41:49.560Z,73.72
2018-02-16T11:44:17.056Z,75.15
2018-02-16T11:46:44.512Z,75.17
2018-02-16T11:49:11.955Z,74.07
2018-02-16T11:51:39.416Z,73.33
2018-02-16T11:54:06.857Z,74.87
2018-02-16T11:56:34.316Z,73.51
2018-02-16T11:59:02.125Z,73.93
2018-02-16T12:01:29.573Z,72.91
2018-02-16T12:03:57.029Z,71.73
2018-02-16T12:06:24.504Z,70.69
2018-02-16T12:08:51.962Z,72.54
2018-02-16T12:11:19.460Z,68.62
2018-02-16T12:13:46.962Z,71.09
2018-02-16T12:16:14.424Z,71.04
2018-02-16T12:18:41.878Z,70.84
2018-02-16T12:21:09.603Z,71.45
2018-02-16T12:23:37.057Z,71.13
2018-02-16T12:26:04.505Z,70.98
2018-02-16T12:28:32.182Z,69.25
2018-02-16T12:30:59.620Z,69.83
2018-02-16T12:33:27.065Z,68.63
2018-02-16T12:35:54.541Z,66.62
2018-02-16T12:38:22.001Z,67.10
2018-02-16T12:40:49.492Z,65.57
2018-02-16T12:43:17.311Z,64.48
2018-02-16T12:45:44.749Z,65.96
2018-02-16T12:48:12.189Z,65.87
2018-02-16T12:50:39.693Z,65.96
2018-02-16T12:53:07.129Z,65.69
2018-02-16T12:55:34.572Z,65.78
2018-02-16T12:58:02.037Z,64.84
2018-02-16T13:00:29.498Z,64.59
2018-02-16T13:02:56.937Z,64.88
2018-02-16T13:05:24.735Z,65.98
2018-02-16T13:07:52.185Z,64.87
2018-02-16T13:10:19.624Z,65.98
2018-02-16T13:12:47.481Z,65.29
2018-02-16T13:15:14.924Z,65.17
2018-02-16T13:17:42.357Z,63.97
2018-02-16T13:20:09.829Z,64.18
2018-02-16T13:22:37.275Z,61.58
2018-02-16T13:25:04.733Z,61.64
2018-02-16T13:27:32.221Z,61.65
2018-02-16T13:29:59.668Z,61.45
2018-02-16T13:32:27.125Z,59.81
2018-02-16T13:34:54.855Z,60.25
2018-02-16T13:37:22.340Z,59.70
2018-02-16T13:39:49.774Z,59.43
2018-02-16T13:42:17.260Z,58.75
2018-02-16T13:44:44.717Z,58.88
2018-02-16T13:47:12.158Z,58.44
2018-02-16T13:49:39.996Z,61.11
2018-02-16T13:52:07.461Z,60.07
2018-02-16T13:54:34.925Z,59.77
2018-02-16T13:57:02.623Z,59.02
2018-02-16T13:59:30.084Z,58.41
2018-02-16T14:01:57.541Z,59.10
2018-02-16T14:04:25.028Z,58.38
2018-02-16T14:06:52.464Z,55.71
2018-02-16T14:09:20.785Z,54.48
2018-02-16T14:11:48.288Z,53.20
2018-02-16T14:14:15.752Z,54.70
2018-02-16T14:16:43.215Z,55.59
2018-02-16T14:19:10.885Z,55.00
2018-02-16T14:21:38.324Z,54.57
2018-02-16T14:24:05.777Z,54.04
2018-02-16T14:26:33.249Z,54.93
2018-02-16T14:29:00.698Z,54.01
2018-02-16T14:31:28.140Z,54.29
2018-02-16T14:33:55.995Z,54.80
2018-02-16T14:36:23.462Z,53.49
2018-02-16T14:38:50.920Z,54.38
2018-02-16T14:41:18.573Z,54.41
2018-02-16T14:43:46.024Z,54.18
2018-02-16T14:46:13.464Z,54.21
2018-02-16T14:48:41.068Z,53.88
2018-02-16T14:51:08.545Z,53.01
2018-02-16T14:53:35.984Z,52.75
2018-02-16T14:56:03.486Z,53.30
2018-02-16T14:58:30.918Z,53.64
2018-02-16T15:00:58.370Z,53.29
2018-02-16T15:03:25.881Z,52.94
2018-02-16T15:05:53.330Z,53.32
2018-02-16T15:08:21.496Z,51.88
2018-02-16T15:10:49.152Z,52.69
2018-02-16T15:13:16.626Z,53.04
2018-02-16T15:15:44.093Z,52.95
2018-02-16T15:18:11.597Z,53.14
2018-02-16T15:20:39.037Z,51.76
2018-02-16T15:23:06.515Z,51.59
2018-02-16T15:25:34.209Z,52.18
2018-02-16T15:28:01.709Z,52.29
2018-02-16T15:30:29.185Z,52.38
2018-02-16T15:32:56.670Z,52.47
2018-02-16T15:35:24.120Z,53.59
2018-02-16T15:37:51.624Z,53.53
2018-02-16T15:40:19.197Z,53.38
2018-02-16T15:42:46.677Z,53.95
2018-02-16T15:45:14.144Z,53.74
2018-02-16T15:47:41.626Z,54.29
2018-02-16T15:50:09.101Z,53.44
2018-02-16T15:52:36.555Z,53.37
2018-02-16T15:55:04.221Z,54.29
2018-02-16T15:57:31.672Z,54.02
2018-02-16T15:59:59.109Z,54.73
2018-02-16T16:02:26.583Z,54.24
2018-02-16T16:04:54.036Z,53.88
2018-02-16T16:07:21.488Z,55.15
2018-02-16T16:09:49.148Z,60.38
2018-02-16T16:12:16.618Z,57.75
2018-02-16T16:14:44.061Z,58.36
2018-02-16T16:17:11.538Z,59.40
2018-02-16T16:19:38.981Z,61.05
2018-02-16T16:22:06.468Z,61.42
2018-02-16T16:24:34.163Z,62.39
2018-02-16T16:27:01.639Z,63.26
2018-02-16T16:29:29.073Z,63.57
2018-02-16T16:31:56.781Z,63.76
2018-02-16T16:34:24.216Z,65.05
2018-02-16T16:36:51.653Z,63.90
2018-02-16T16:39:19.132Z,63.22
2018-02-16T16:41:46.572Z,63.26
2018-02-16T16:44:14.033Z,63.47
2018-02-16T16:46:41.509Z,64.71
2018-02-16T16:49:08.972Z,66.54
2018-02-16T16:51:36.413Z,68.36
2018-02-16T16:54:04.209Z,68.70
2018-02-16T16:56:31.665Z,69.19
2018-02-16T16:58:59.138Z,69.99
2018-02-16T17:01:26.768Z,69.98
2018-02-16T17:03:54.246Z,71.92
2018-02-16T17:06:21.700Z,72.37
2018-02-16T17:08:49.394Z,72.44
2018-02-16T17:11:16.920Z,72.80
2018-02-16T17:13:44.415Z,73.68
2018-02-16T17:16:12.976Z,73.90
2018-02-16T17:18:40.430Z,74.79
2018-02-16T17:21:07.872Z,74.49
2018-02-16T17:23:35.777Z,74.56
2018-02-16T17:26:03.223Z,75.20
2018-02-16T17:28:30.662Z,75.33
2018-02-16T17:30:58.305Z,75.35
2018-02-16T17:33:25.772Z,75.34
2018-02-16T17:35:53.208Z,76.17
2018-02-16T17:38:20.717Z,76.13
2018-02-16T17:40:48.152Z,77.47
2018-02-16T17:43:15.621Z,76.64
2018-02-16T17:45:43.097Z,77.69
2018-02-16T17:48:10.536Z,77.58
2018-02-16T17:50:38.002Z,76.29
2018-02-16T17:53:05.503Z,77.64
2018-02-16T17:55:32.971Z,77.90
2018-02-16T17:58:00.409Z,77.31
2018-02-16T18:00:27.984Z,77.60
2018-02-16T18:02:55.441Z,79.02
2018-02-16T18:05:22.890Z,78.43
2018-02-16T18:07:50.417Z,78.23
2018-02-16T18:10:17.865Z,78.89
2018-02-16T18:12:45.313Z,78.81
2018-02-16T18:15:13.017Z,79.13
2018-02-16T18:17:40.473Z,79.43
2018-02-16T18:20:07.917Z,79.80
2018-02-16T18:22:35.576Z,79.53
2018-02-16T18:25:03.021Z,79.98
2018-02-16T18:27:30.482Z,79.58
2018-02-16T18:29:57.976Z,79.83
2018-02-16T18:32:25.441Z,80.11
2018-02-16T18:34:52.982Z,79.94
2018-02-16T18:37:20.700Z,80.40
2018-02-16T18:39:48.163Z,80.38
2018-02-16T18:42:15.601Z,80.27
2018-02-16T18:44:43.449Z,80.30
2018-02-16T18:47:10.901Z,80.72
2018-02-16T18:49:38.336Z,80.52
2018-02-16T18:52:06.033Z,80.63
2018-02-16T18:54:33.496Z,80.38
2018-02-16T18:57:00.957Z,80.36
2018-02-16T18:59:28.453Z,79.34
2018-02-16T19:01:55.909Z,79.77
2018-02-16T19:04:23.367Z,80.63
2018-02-16T19:06:50.892Z,81.02
2018-02-16T19:09:18.377Z,80.86
2018-02-16T19:11:45.813Z,81.43
2018-02-16T19:14:13.601Z,81.03
2018-02-16T19:16:41.052Z,81.29
2018-02-16T19:19:08.517Z,81.45
2018-02-16T19:21:36.022Z,81.43
2018-02-16T19:24:03.480Z,82.21
2018-02-16T19:26:30.933Z,82.74
2018-02-16T19:28:58.609Z,82.79
2018-02-16T19:31:26.057Z,82.46
2018-02-16T19:33:53.509Z,81.95
2018-02-16T19:36:21.304Z,82.92
2018-02-16T19:38:48.759Z,82.85
2018-02-16T19:41:16.224Z,82.89
2018-02-16T19:43:43.921Z,82.90
2018-02-16T19:46:11.368Z,83.63
2018-02-16T19:48:38.877Z,83.41
2018-02-16T19:51:06.737Z,83.37
2018-02-16T19:53:34.185Z,83.64
2018-02-16T19:56:01.638Z,82.81
2018-02-16T19:58:29.300Z,83.01
2018-02-16T20:00:56.756Z,83.24
2018-02-16T20:03:24.209Z,84.06
2018-02-16T20:05:51.698Z,84.56
2018-02-16T20:08:19.822Z,85.20
2018-02-16T20:10:47.298Z,83.38
2018-02-16T20:13:14.991Z,83.56
2018-02-16T20:15:42.450Z,83.15
2018-02-16T20:18:09.915Z,83.41
2018-02-16T20:20:37.597Z,83.89
2018-02-16T20:23:05.057Z,84.44
2018-02-16T20:25:32.541Z,84.04
2018-02-16T20:28:00.113Z,84.04
2018-02-16T20:30:27.573Z,84.27
2018-02-16T20:32:55.017Z,84.72
2018-02-16T20:35:22.498Z,84.66
2018-02-16T20:37:49.961Z,84.58
2018-02-16T20:40:17.409Z,84.34
2018-02-16T20:42:44.914Z,85.26
2018-02-16T20:45:12.360Z,85.35
2018-02-16T20:47:40.064Z,85.43
2018-02-16T20:50:07.540Z,84.83
2018-02-16T20:52:35.017Z,85.08
2018-02-16T20:55:02.470Z,85.47
2018-02-16T20:57:30.172Z,85.71
2018-02-16T20:59:57.630Z,86.40
2018-02-16T21:02:25.079Z,85.86
2018-02-16T21:04:53.185Z,85.29
2018-02-16T21:07:20.628Z,85.65
2018-02-16T21:09:48.077Z,85.77
2018-02-16T21:12:15.544Z,85.61
2018-02-16T21:14:43.019Z,86.25
2018-02-16T21:17:10.488Z,87.55
2018-02-16T21:19:39.056Z,87.40
2018-02-16T21:22:06.544Z,86.30
2018-02-16T21:24:34.038Z,86.67
2018-02-16T21:27:01.485Z,86.26
2018-02-16T21:29:28.933Z,86.43
2018-02-16T21:31:56.413Z,85.92
2018-02-16T21:34:23.857Z,86.04
2018-02-16T21:36:51.330Z,86.39
2018-02-16T21:39:18.801Z,86.55
2018-02-16T21:41:46.251Z,86.83
2018-02-16T21:44:13.732Z,86.72
2018-02-16T21:46:41.181Z,87.11
2018-02-16T21:49:08.979Z,86.71
2018-02-16T21:51:36.429Z,87.00
2018-02-16T21:54:03.905Z,86.86
2018-02-16T21:56:31.485Z,86.48
2018-02-16T21:58:58.949Z,86.02
2018-02-16T22:01:26.417Z,86.48
2018-02-16T22:03:53.896Z,86.77
2018-02-16T22:06:21.345Z,86.64
2018-02-16T22:08:48.825Z,86.69
2018-02-16T22:11:16.266Z,85.79
2018-02-16T22:13:43.714Z,86.09
2018-02-16T22:16:11.437Z,87.02
2018-02-16T22:18:38.929Z,86.49
2018-02-16T22:21:06.378Z,86.70
2018-02-16T22:23:33.861Z,86.90
2018-02-16T22:26:01.309Z,86.69
2018-02-16T22:28:28.754Z,87.63
2018-02-16T22:30:56.672Z,87.00
2018-02-16T22:33:24.125Z,87.92
2018-02-16T22:35:51.584Z,87.34
2018-02-16T22:38:19.053Z,87.88
2018-02-16T22:40:46.508Z,87.45
2018-02-16T22:43:14.160Z,87.34
2018-02-16T22:45:41.637Z,87.64
2018-02-16T22:48:09.082Z,87.09
2018-02-16T22:50:36.549Z,86.72
2018-02-16T22:53:04.008Z,86.70
2018-02-16T22:55:31.501Z,87.21
2018-02-16T22:57:58.940Z,87.07
2018-02-16T23:00:26.376Z,87.24
2018-02-16T23:02:53.872Z,87.17
2018-02-16T23:05:21.317Z,86.92
2018-02-16T23:07:49.126Z,87.29
2018-02-16T23:10:16.574Z,87.85
2018-02-16T23:12:44.025Z,87.60
2018-02-16T23:15:11.496Z,87.40
2018-02-16T23:17:38.945Z,88.32
2018-02-16T23:20:06.425Z,87.88
2018-02-16T23:22:33.872Z,87.95
2018-02-16T23:25:01.316Z,88.20
2018-02-16T23:27:28.783Z,88.31
2018-02-16T23:29:56.229Z,87.77
2018-02-16T23:32:23.720Z,88.09
2018-02-16T23:34:51.174Z,88.91
2018-02-16T23:37:18.644Z,87.61
2018-02-16T23:39:46.112Z,88.08
2018-02-16T23:42:13.561Z,87.83
2018-02-16T23:44:41.217Z,88.16
2018-02-16T23:47:08.673Z,87.80
2018-02-16T23:49:36.148Z,87.22
2018-02-16T23:52:03.614Z,87.15
2018-02-16T23:54:31.061Z,87.21
2018-02-16T23:56:58.674Z,87.30
2018-02-16T23:59:26.127Z,88.39
